Peabody, Kentucky
Current Conditions -  °F | °C
As of 2:53 PM on Wednesday 26 Nov 2014 (Local Time) from KLOZ Reporting Station
Clear Clear  
Wind Chill: 45°   Ceiling: Unl
Heat Index: 49°   Visibility: 10mi
Dew Point: 24°   Wind: 8mph
Humidity: 38%   Direction: 250°WSW
Pressure: 30.01"   Gusts: NA
Location:  37.1553°N, 83.623°W
Report Text: KLOZ 261953Z AUTO 25007KT 10SM CLR 09/M04 A3001 RMK AO2 SLP163 T00941044
Loading
Personal Weather Stations






























Interactive Weather Map New forecast layout! Learn more

10-Day Weather Forecast

Advertisements
Track Severe Weather on mobile